sensor_id;sensor_type;location;lat;lon;timestamp;P1;durP1;ratioP1;P2;durP2;ratioP2
40649;SDS011;26342;42.826;23.992;2024-01-30T00:01:07;8.02;;;3.47;;
40649;SDS011;26342;42.826;23.992;2024-01-30T00:03:32;7.20;;;3.30;;
40649;SDS011;26342;42.826;23.992;2024-01-30T00:05:58;6.55;;;3.00;;
40649;SDS011;26342;42.826;23.992;2024-01-30T00:08:23;6.03;;;2.33;;
40649;SDS011;26342;42.826;23.992;2024-01-30T00:10:51;3.80;;;2.70;;
40649;SDS011;26342;42.826;23.992;2024-01-30T00:13:17;5.30;;;2.03;;
40649;SDS011;26342;42.826;23.992;2024-01-30T00:15:44;2.17;;;1.35;;
40649;SDS011;26342;42.826;23.992;2024-01-30T00:18:09;2.83;;;1.40;;
40649;SDS011;26342;42.826;23.992;2024-01-30T00:20:35;3.42;;;1.80;;
40649;SDS011;26342;42.826;23.992;2024-01-30T00:23:00;4.20;;;1.63;;
40649;SDS011;26342;42.826;23.992;2024-01-30T00:25:26;6.70;;;2.65;;
40649;SDS011;26342;42.826;23.992;2024-01-30T00:27:52;4.32;;;1.65;;
40649;SDS011;26342;42.826;23.992;2024-01-30T00:30:17;4.05;;;2.40;;
40649;SDS011;26342;42.826;23.992;2024-01-30T00:32:42;3.75;;;1.85;;
40649;SDS011;26342;42.826;23.992;2024-01-30T00:35:08;3.20;;;2.22;;
40649;SDS011;26342;42.826;23.992;2024-01-30T00:37:35;7.00;;;4.25;;
40649;SDS011;26342;42.826;23.992;2024-01-30T00:40:00;5.53;;;3.13;;
40649;SDS011;26342;42.826;23.992;2024-01-30T00:42:26;5.07;;;2.10;;
40649;SDS011;26342;42.826;23.992;2024-01-30T00:44:51;4.80;;;1.95;;
40649;SDS011;26342;42.826;23.992;2024-01-30T00:47:17;2.05;;;1.70;;
40649;SDS011;26342;42.826;23.992;2024-01-30T00:49:42;3.60;;;1.98;;
40649;SDS011;26342;42.826;23.992;2024-01-30T00:52:08;2.28;;;1.40;;
40649;SDS011;26342;42.826;23.992;2024-01-30T00:54:33;4.10;;;2.03;;
40649;SDS011;26342;42.826;23.992;2024-01-30T00:56:59;3.97;;;2.40;;
40649;SDS011;26342;42.826;23.992;2024-01-30T00:59:24;6.07;;;2.42;;
40649;SDS011;26342;42.826;23.992;2024-01-30T01:01:50;0.82;;;0.82;;
40649;SDS011;26342;42.826;23.992;2024-01-30T01:04:15;1.92;;;1.35;;
40649;SDS011;26342;42.826;23.992;2024-01-30T01:06:42;4.40;;;1.38;;
40649;SDS011;26342;42.826;23.992;2024-01-30T01:09:09;3.22;;;1.58;;
40649;SDS011;26342;42.826;23.992;2024-01-30T01:11:36;2.72;;;1.23;;
40649;SDS011;26342;42.826;23.992;2024-01-30T01:14:02;1.45;;;1.15;;
40649;SDS011;26342;42.826;23.992;2024-01-30T01:16:28;4.28;;;1.83;;
40649;SDS011;26342;42.826;23.992;2024-01-30T01:18:54;3.33;;;1.17;;
40649;SDS011;26342;42.826;23.992;2024-01-30T01:21:19;6.75;;;2.17;;
40649;SDS011;26342;42.826;23.992;2024-01-30T01:23:45;3.22;;;2.42;;
40649;SDS011;26342;42.826;23.992;2024-01-30T01:26:10;1.13;;;1.02;;
40649;SDS011;26342;42.826;23.992;2024-01-30T01:28:35;7.97;;;2.42;;
40649;SDS011;26342;42.826;23.992;2024-01-30T01:31:01;5.07;;;1.42;;
40649;SDS011;26342;42.826;23.992;2024-01-30T01:33:31;1.75;;;1.02;;
40649;SDS011;26342;42.826;23.992;2024-01-30T01:35:58;5.07;;;1.77;;
40649;SDS011;26342;42.826;23.992;2024-01-30T01:38:23;1.50;;;0.70;;
40649;SDS011;26342;42.826;23.992;2024-01-30T01:40:48;2.05;;;0.75;;
40649;SDS011;26342;42.826;23.992;2024-01-30T01:43:14;2.33;;;0.80;;
40649;SDS011;26342;42.826;23.992;2024-01-30T01:45:39;0.93;;;0.68;;
40649;SDS011;26342;42.826;23.992;2024-01-30T01:48:05;2.03;;;1.00;;
40649;SDS011;26342;42.826;23.992;2024-01-30T01:50:31;0.75;;;0.60;;
40649;SDS011;26342;42.826;23.992;2024-01-30T01:52:57;1.65;;;1.08;;
40649;SDS011;26342;42.826;23.992;2024-01-30T01:55:23;4.85;;;1.30;;
40649;SDS011;26342;42.826;23.992;2024-01-30T01:57:52;1.90;;;1.00;;
40649;SDS011;26342;42.826;23.992;2024-01-30T02:00:18;0.98;;;0.85;;
40649;SDS011;26342;42.826;23.992;2024-01-30T02:02:45;2.53;;;1.33;;
40649;SDS011;26342;42.826;23.992;2024-01-30T02:05:11;7.00;;;3.38;;
40649;SDS011;26342;42.826;23.992;2024-01-30T02:07:37;1.27;;;1.13;;
40649;SDS011;26342;42.826;23.992;2024-01-30T02:10:02;3.13;;;1.05;;
40649;SDS011;26342;42.826;23.992;2024-01-30T02:12:28;1.00;;;0.65;;
40649;SDS011;26342;42.826;23.992;2024-01-30T02:14:54;1.90;;;0.93;;
40649;SDS011;26342;42.826;23.992;2024-01-30T02:17:20;0.50;;;0.50;;
40649;SDS011;26342;42.826;23.992;2024-01-30T02:19:46;1.35;;;0.82;;
40649;SDS011;26342;42.826;23.992;2024-01-30T02:22:11;0.85;;;0.52;;
40649;SDS011;26342;42.826;23.992;2024-01-30T02:24:38;4.13;;;1.23;;
40649;SDS011;26342;42.826;23.992;2024-01-30T02:27:03;2.20;;;0.90;;
40649;SDS011;26342;42.826;23.992;2024-01-30T02:29:29;4.80;;;1.20;;
40649;SDS011;26342;42.826;23.992;2024-01-30T02:31:54;1.70;;;0.70;;
40649;SDS011;26342;42.826;23.992;2024-01-30T02:34:20;2.92;;;0.57;;
40649;SDS011;26342;42.826;23.992;2024-01-30T02:36:46;3.17;;;0.88;;
40649;SDS011;26342;42.826;23.992;2024-01-30T02:39:11;1.13;;;0.60;;
40649;SDS011;26342;42.826;23.992;2024-01-30T02:41:36;1.95;;;0.73;;
40649;SDS011;26342;42.826;23.992;2024-01-30T02:44:02;4.85;;;1.08;;
40649;SDS011;26342;42.826;23.992;2024-01-30T02:46:28;3.13;;;1.17;;
40649;SDS011;26342;42.826;23.992;2024-01-30T02:48:54;2.08;;;1.08;;
40649;SDS011;26342;42.826;23.992;2024-01-30T02:51:20;0.55;;;0.55;;
40649;SDS011;26342;42.826;23.992;2024-01-30T02:53:45;1.10;;;0.80;;
40649;SDS011;26342;42.826;23.992;2024-01-30T02:56:10;3.42;;;1.02;;
40649;SDS011;26342;42.826;23.992;2024-01-30T02:58:37;1.23;;;0.82;;
40649;SDS011;26342;42.826;23.992;2024-01-30T03:01:02;1.00;;;0.77;;
40649;SDS011;26342;42.826;23.992;2024-01-30T03:03:28;0.75;;;0.40;;
40649;SDS011;26342;42.826;23.992;2024-01-30T03:05:53;2.08;;;0.95;;
40649;SDS011;26342;42.826;23.992;2024-01-30T03:08:19;1.98;;;1.30;;
40649;SDS011;26342;42.826;23.992;2024-01-30T03:10:44;1.80;;;0.82;;
40649;SDS011;26342;42.826;23.992;2024-01-30T03:13:10;1.88;;;1.05;;
40649;SDS011;26342;42.826;23.992;2024-01-30T03:15:35;0.45;;;0.45;;
40649;SDS011;26342;42.826;23.992;2024-01-30T03:18:01;0.73;;;0.55;;
40649;SDS011;26342;42.826;23.992;2024-01-30T03:20:28;1.40;;;0.73;;
40649;SDS011;26342;42.826;23.992;2024-01-30T03:22:54;1.83;;;0.77;;
40649;SDS011;26342;42.826;23.992;2024-01-30T03:25:20;2.05;;;0.73;;
40649;SDS011;26342;42.826;23.992;2024-01-30T03:27:46;1.40;;;0.55;;
40649;SDS011;26342;42.826;23.992;2024-01-30T03:30:11;0.82;;;0.65;;
40649;SDS011;26342;42.826;23.992;2024-01-30T03:32:37;0.63;;;0.50;;
40649;SDS011;26342;42.826;23.992;2024-01-30T03:35:02;0.88;;;0.85;;
40649;SDS011;26342;42.826;23.992;2024-01-30T03:37:28;1.17;;;1.08;;
40649;SDS011;26342;42.826;23.992;2024-01-30T03:39:53;5.65;;;1.33;;
40649;SDS011;26342;42.826;23.992;2024-01-30T03:42:19;2.60;;;0.60;;
40649;SDS011;26342;42.826;23.992;2024-01-30T03:44:44;0.73;;;0.50;;
40649;SDS011;26342;42.826;23.992;2024-01-30T03:47:09;1.13;;;0.80;;
40649;SDS011;26342;42.826;23.992;2024-01-30T03:49:35;3.63;;;1.33;;
40649;SDS011;26342;42.826;23.992;2024-01-30T03:52:01;0.82;;;0.52;;
40649;SDS011;26342;42.826;23.992;2024-01-30T03:54:26;1.23;;;0.70;;
40649;SDS011;26342;42.826;23.992;2024-01-30T03:56:51;0.90;;;0.70;;
40649;SDS011;26342;42.826;23.992;2024-01-30T03:59:17;2.20;;;0.60;;
40649;SDS011;26342;42.826;23.992;2024-01-30T04:01:47;4.57;;;1.30;;
40649;SDS011;26342;42.826;23.992;2024-01-30T04:04:12;2.15;;;0.90;;
40649;SDS011;26342;42.826;23.992;2024-01-30T04:06:38;4.65;;;0.85;;
40649;SDS011;26342;42.826;23.992;2024-01-30T04:09:03;1.58;;;0.95;;
40649;SDS011;26342;42.826;23.992;2024-01-30T04:11:29;3.72;;;2.05;;
40649;SDS011;26342;42.826;23.992;2024-01-30T04:13:55;3.17;;;1.67;;
40649;SDS011;26342;42.826;23.992;2024-01-30T04:16:21;0.52;;;0.52;;
40649;SDS011;26342;42.826;23.992;2024-01-30T04:18:47;1.23;;;1.13;;
40649;SDS011;26342;42.826;23.992;2024-01-30T04:21:13;1.85;;;0.93;;
40649;SDS011;26342;42.826;23.992;2024-01-30T04:23:39;4.25;;;1.65;;
40649;SDS011;26342;42.826;23.992;2024-01-30T04:26:05;1.13;;;0.77;;
40649;SDS011;26342;42.826;23.992;2024-01-30T04:28:31;4.10;;;2.13;;
40649;SDS011;26342;42.826;23.992;2024-01-30T04:30:57;4.82;;;1.60;;
40649;SDS011;26342;42.826;23.992;2024-01-30T04:33:22;8.02;;;2.50;;
40649;SDS011;26342;42.826;23.992;2024-01-30T04:35:48;5.20;;;2.35;;
40649;SDS011;26342;42.826;23.992;2024-01-30T04:38:13;3.35;;;1.55;;
40649;SDS011;26342;42.826;23.992;2024-01-30T04:40:39;2.33;;;1.60;;
40649;SDS011;26342;42.826;23.992;2024-01-30T04:43:05;1.55;;;0.98;;
40649;SDS011;26342;42.826;23.992;2024-01-30T04:45:31;1.42;;;1.20;;
40649;SDS011;26342;42.826;23.992;2024-01-30T04:47:57;2.28;;;1.15;;
40649;SDS011;26342;42.826;23.992;2024-01-30T04:50:22;6.50;;;1.10;;
40649;SDS011;26342;42.826;23.992;2024-01-30T04:52:48;4.75;;;2.33;;
40649;SDS011;26342;42.826;23.992;2024-01-30T04:55:14;4.07;;;3.03;;
40649;SDS011;26342;42.826;23.992;2024-01-30T04:57:40;3.28;;;2.38;;
40649;SDS011;26342;42.826;23.992;2024-01-30T05:00:05;4.93;;;2.08;;
40649;SDS011;26342;42.826;23.992;2024-01-30T05:02:31;4.80;;;2.00;;
40649;SDS011;26342;42.826;23.992;2024-01-30T05:04:57;7.38;;;3.17;;
40649;SDS011;26342;42.826;23.992;2024-01-30T05:07:24;3.90;;;2.70;;
40649;SDS011;26342;42.826;23.992;2024-01-30T05:09:50;6.40;;;3.97;;
40649;SDS011;26342;42.826;23.992;2024-01-30T05:12:16;6.18;;;3.22;;
40649;SDS011;26342;42.826;23.992;2024-01-30T05:14:41;1.63;;;1.45;;
40649;SDS011;26342;42.826;23.992;2024-01-30T05:17:06;4.32;;;1.88;;
40649;SDS011;26342;42.826;23.992;2024-01-30T05:19:34;3.58;;;1.95;;
40649;SDS011;26342;42.826;23.992;2024-01-30T05:21:59;5.97;;;2.22;;
40649;SDS011;26342;42.826;23.992;2024-01-30T05:24:25;6.05;;;2.50;;
40649;SDS011;26342;42.826;23.992;2024-01-30T05:26:50;3.90;;;1.60;;
40649;SDS011;26342;42.826;23.992;2024-01-30T05:29:16;9.88;;;4.00;;
40649;SDS011;26342;42.826;23.992;2024-01-30T05:31:42;7.28;;;3.97;;
40649;SDS011;26342;42.826;23.992;2024-01-30T05:34:07;6.55;;;2.85;;
40649;SDS011;26342;42.826;23.992;2024-01-30T05:36:34;7.07;;;4.30;;
40649;SDS011;26342;42.826;23.992;2024-01-30T05:38:59;9.23;;;4.55;;
40649;SDS011;26342;42.826;23.992;2024-01-30T05:41:25;5.10;;;3.42;;
40649;SDS011;26342;42.826;23.992;2024-01-30T05:43:50;6.25;;;2.83;;
40649;SDS011;26342;42.826;23.992;2024-01-30T05:46:18;10.55;;;6.00;;
40649;SDS011;26342;42.826;23.992;2024-01-30T05:48:44;5.15;;;3.25;;
40649;SDS011;26342;42.826;23.992;2024-01-30T05:51:09;8.00;;;3.42;;
40649;SDS011;26342;42.826;23.992;2024-01-30T05:53:35;10.43;;;4.60;;
40649;SDS011;26342;42.826;23.992;2024-01-30T05:56:01;5.05;;;2.53;;
40649;SDS011;26342;42.826;23.992;2024-01-30T05:58:27;6.15;;;2.72;;
40649;SDS011;26342;42.826;23.992;2024-01-30T06:00:52;4.45;;;2.28;;
40649;SDS011;26342;42.826;23.992;2024-01-30T06:03:17;4.93;;;2.22;;
40649;SDS011;26342;42.826;23.992;2024-01-30T06:05:43;3.13;;;2.50;;
40649;SDS011;26342;42.826;23.992;2024-01-30T06:08:09;5.95;;;2.53;;
40649;SDS011;26342;42.826;23.992;2024-01-30T06:10:34;7.20;;;3.40;;
40649;SDS011;26342;42.826;23.992;2024-01-30T06:13:00;6.60;;;4.22;;
40649;SDS011;26342;42.826;23.992;2024-01-30T06:15:25;4.63;;;3.00;;
40649;SDS011;26342;42.826;23.992;2024-01-30T06:17:51;5.38;;;2.10;;
40649;SDS011;26342;42.826;23.992;2024-01-30T06:20:16;2.28;;;1.75;;
40649;SDS011;26342;42.826;23.992;2024-01-30T06:22:42;1.98;;;1.73;;
40649;SDS011;26342;42.826;23.992;2024-01-30T06:25:08;4.07;;;2.78;;
40649;SDS011;26342;42.826;23.992;2024-01-30T06:27:33;4.20;;;2.63;;
40649;SDS011;26342;42.826;23.992;2024-01-30T06:29:59;5.60;;;3.65;;
40649;SDS011;26342;42.826;23.992;2024-01-30T06:32:24;3.35;;;1.98;;
40649;SDS011;26342;42.826;23.992;2024-01-30T06:34:50;4.00;;;2.20;;
40649;SDS011;26342;42.826;23.992;2024-01-30T06:37:15;6.80;;;3.22;;
40649;SDS011;26342;42.826;23.992;2024-01-30T06:39:40;12.35;;;3.38;;
40649;SDS011;26342;42.826;23.992;2024-01-30T06:42:06;3.45;;;1.38;;
40649;SDS011;26342;42.826;23.992;2024-01-30T06:44:31;2.88;;;1.40;;
40649;SDS011;26342;42.826;23.992;2024-01-30T06:46:57;6.15;;;3.30;;
40649;SDS011;26342;42.826;23.992;2024-01-30T06:49:23;4.25;;;1.77;;
40649;SDS011;26342;42.826;23.992;2024-01-30T06:51:48;3.35;;;2.78;;
40649;SDS011;26342;42.826;23.992;2024-01-30T06:54:14;2.47;;;2.08;;
40649;SDS011;26342;42.826;23.992;2024-01-30T06:56:39;6.38;;;2.30;;
40649;SDS011;26342;42.826;23.992;2024-01-30T06:59:04;2.13;;;1.05;;
40649;SDS011;26342;42.826;23.992;2024-01-30T07:01:30;3.70;;;2.47;;
40649;SDS011;26342;42.826;23.992;2024-01-30T07:03:55;5.50;;;2.55;;
40649;SDS011;26342;42.826;23.992;2024-01-30T07:06:22;2.40;;;1.85;;
40649;SDS011;26342;42.826;23.992;2024-01-30T07:08:48;2.05;;;1.52;;
40649;SDS011;26342;42.826;23.992;2024-01-30T07:11:21;7.47;;;2.78;;
40649;SDS011;26342;42.826;23.992;2024-01-30T07:13:47;6.70;;;2.13;;
40649;SDS011;26342;42.826;23.992;2024-01-30T07:16:13;6.07;;;2.03;;
40649;SDS011;26342;42.826;23.992;2024-01-30T07:18:40;6.00;;;3.25;;
40649;SDS011;26342;42.826;23.992;2024-01-30T07:21:05;3.67;;;2.00;;
40649;SDS011;26342;42.826;23.992;2024-01-30T07:23:31;4.35;;;2.50;;
40649;SDS011;26342;42.826;23.992;2024-01-30T07:25:59;3.38;;;2.03;;
40649;SDS011;26342;42.826;23.992;2024-01-30T07:28:24;7.47;;;2.08;;
40649;SDS011;26342;42.826;23.992;2024-01-30T07:30:50;5.90;;;3.05;;
40649;SDS011;26342;42.826;23.992;2024-01-30T07:33:15;3.35;;;2.33;;
40649;SDS011;26342;42.826;23.992;2024-01-30T07:35:41;5.65;;;2.22;;
40649;SDS011;26342;42.826;23.992;2024-01-30T07:38:06;7.25;;;3.05;;
40649;SDS011;26342;42.826;23.992;2024-01-30T07:40:32;8.77;;;3.90;;
40649;SDS011;26342;42.826;23.992;2024-01-30T07:42:58;7.18;;;3.65;;
40649;SDS011;26342;42.826;23.992;2024-01-30T07:45:24;8.25;;;3.45;;
40649;SDS011;26342;42.826;23.992;2024-01-30T07:47:50;5.88;;;2.45;;
40649;SDS011;26342;42.826;23.992;2024-01-30T07:50:16;7.30;;;3.75;;
40649;SDS011;26342;42.826;23.992;2024-01-30T07:52:42;10.80;;;3.42;;
40649;SDS011;26342;42.826;23.992;2024-01-30T07:55:08;8.52;;;3.28;;
40649;SDS011;26342;42.826;23.992;2024-01-30T07:57:34;4.53;;;2.58;;
40649;SDS011;26342;42.826;23.992;2024-01-30T08:00:00;3.28;;;2.25;;
40649;SDS011;26342;42.826;23.992;2024-01-30T08:02:28;2.38;;;1.63;;
40649;SDS011;26342;42.826;23.992;2024-01-30T08:04:53;2.92;;;1.73;;
40649;SDS011;26342;42.826;23.992;2024-01-30T08:07:18;3.40;;;1.95;;
40649;SDS011;26342;42.826;23.992;2024-01-30T08:09:44;2.97;;;1.73;;
40649;SDS011;26342;42.826;23.992;2024-01-30T08:12:10;2.83;;;2.13;;
40649;SDS011;26342;42.826;23.992;2024-01-30T08:14:35;10.90;;;1.92;;
40649;SDS011;26342;42.826;23.992;2024-01-30T08:17:01;2.65;;;1.80;;
40649;SDS011;26342;42.826;23.992;2024-01-30T08:19:26;4.05;;;1.58;;
40649;SDS011;26342;42.826;23.992;2024-01-30T08:21:52;6.82;;;3.97;;
40649;SDS011;26342;42.826;23.992;2024-01-30T08:24:18;6.00;;;3.65;;
40649;SDS011;26342;42.826;23.992;2024-01-30T08:26:45;6.43;;;2.83;;
40649;SDS011;26342;42.826;23.992;2024-01-30T08:29:11;4.20;;;1.95;;
40649;SDS011;26342;42.826;23.992;2024-01-30T08:31:36;7.35;;;2.47;;
40649;SDS011;26342;42.826;23.992;2024-01-30T08:34:02;4.32;;;2.20;;
40649;SDS011;26342;42.826;23.992;2024-01-30T08:36:27;2.65;;;1.15;;
40649;SDS011;26342;42.826;23.992;2024-01-30T08:38:53;2.40;;;1.77;;
40649;SDS011;26342;42.826;23.992;2024-01-30T08:41:19;2.60;;;1.50;;
40649;SDS011;26342;42.826;23.992;2024-01-30T08:43:44;1.33;;;0.82;;
40649;SDS011;26342;42.826;23.992;2024-01-30T08:46:10;1.73;;;1.08;;
40649;SDS011;26342;42.826;23.992;2024-01-30T08:48:36;0.82;;;0.80;;
40649;SDS011;26342;42.826;23.992;2024-01-30T08:51:01;3.53;;;1.02;;
40649;SDS011;26342;42.826;23.992;2024-01-30T08:53:27;2.40;;;0.73;;
40649;SDS011;26342;42.826;23.992;2024-01-30T08:55:53;1.58;;;1.20;;
40649;SDS011;26342;42.826;23.992;2024-01-30T08:58:19;1.95;;;1.33;;
40649;SDS011;26342;42.826;23.992;2024-01-30T09:00:44;1.13;;;0.68;;
40649;SDS011;26342;42.826;23.992;2024-01-30T09:03:10;1.83;;;1.10;;
40649;SDS011;26342;42.826;23.992;2024-01-30T09:05:35;1.50;;;1.20;;
40649;SDS011;26342;42.826;23.992;2024-01-30T09:08:00;0.77;;;0.45;;
40649;SDS011;26342;42.826;23.992;2024-01-30T09:10:26;6.35;;;2.10;;
40649;SDS011;26342;42.826;23.992;2024-01-30T09:12:51;3.63;;;1.40;;
40649;SDS011;26342;42.826;23.992;2024-01-30T09:15:18;1.63;;;1.35;;
40649;SDS011;26342;42.826;23.992;2024-01-30T09:17:44;1.38;;;0.75;;
40649;SDS011;26342;42.826;23.992;2024-01-30T09:20:10;3.13;;;0.80;;
40649;SDS011;26342;42.826;23.992;2024-01-30T09:22:36;3.33;;;1.80;;
40649;SDS011;26342;42.826;23.992;2024-01-30T09:25:04;4.10;;;2.20;;
40649;SDS011;26342;42.826;23.992;2024-01-30T09:27:30;5.38;;;2.08;;
40649;SDS011;26342;42.826;23.992;2024-01-30T09:30:32;2.15;;;0.93;;
40649;SDS011;26342;42.826;23.992;2024-01-30T09:32:57;2.88;;;1.55;;
40649;SDS011;26342;42.826;23.992;2024-01-30T09:35:23;1.90;;;0.82;;
40649;SDS011;26342;42.826;23.992;2024-01-30T09:37:48;5.25;;;1.30;;
40649;SDS011;26342;42.826;23.992;2024-01-30T09:40:14;1.48;;;0.80;;
40649;SDS011;26342;42.826;23.992;2024-01-30T09:42:43;7.75;;;1.20;;
40649;SDS011;26342;42.826;23.992;2024-01-30T09:45:14;0.40;;;0.40;;
40649;SDS011;26342;42.826;23.992;2024-01-30T09:47:40;0.75;;;0.73;;
40649;SDS011;26342;42.826;23.992;2024-01-30T09:50:08;1.55;;;1.25;;
40649;SDS011;26342;42.826;23.992;2024-01-30T09:52:35;1.83;;;0.60;;
40649;SDS011;26342;42.826;23.992;2024-01-30T09:55:01;1.00;;;1.00;;
40649;SDS011;26342;42.826;23.992;2024-01-30T09:57:27;1.95;;;1.13;;
40649;SDS011;26342;42.826;23.992;2024-01-30T09:59:53;2.17;;;1.05;;
40649;SDS011;26342;42.826;23.992;2024-01-30T10:02:22;16.92;;;1.70;;
40649;SDS011;26342;42.826;23.992;2024-01-30T10:04:48;1.27;;;0.93;;
40649;SDS011;26342;42.826;23.992;2024-01-30T10:07:17;1.75;;;1.15;;
40649;SDS011;26342;42.826;23.992;2024-01-30T10:09:43;4.07;;;1.20;;
40649;SDS011;26342;42.826;23.992;2024-01-30T10:12:10;0.95;;;0.82;;
40649;SDS011;26342;42.826;23.992;2024-01-30T10:14:38;1.90;;;1.30;;
40649;SDS011;26342;42.826;23.992;2024-01-30T10:17:05;0.77;;;0.77;;
40649;SDS011;26342;42.826;23.992;2024-01-30T10:19:35;1.90;;;1.33;;
40649;SDS011;26342;42.826;23.992;2024-01-30T10:22:01;4.57;;;1.25;;
40649;SDS011;26342;42.826;23.992;2024-01-30T10:24:26;2.10;;;1.70;;
40649;SDS011;26342;42.826;23.992;2024-01-30T10:26:54;5.88;;;2.50;;
40649;SDS011;26342;42.826;23.992;2024-01-30T10:29:20;2.35;;;1.20;;
40649;SDS011;26342;42.826;23.992;2024-01-30T10:31:45;3.00;;;2.03;;
40649;SDS011;26342;42.826;23.992;2024-01-30T10:34:12;2.85;;;1.88;;
40649;SDS011;26342;42.826;23.992;2024-01-30T10:36:41;2.42;;;1.23;;
40649;SDS011;26342;42.826;23.992;2024-01-30T10:39:08;27.00;;;2.65;;
40649;SDS011;26342;42.826;23.992;2024-01-30T10:41:35;4.30;;;1.83;;
40649;SDS011;26342;42.826;23.992;2024-01-30T10:44:09;2.83;;;1.98;;
40649;SDS011;26342;42.826;23.992;2024-01-30T10:46:37;2.03;;;0.90;;
40649;SDS011;26342;42.826;23.992;2024-01-30T10:49:04;5.00;;;1.90;;
40649;SDS011;26342;42.826;23.992;2024-01-30T10:51:31;1.38;;;1.23;;
40649;SDS011;26342;42.826;23.992;2024-01-30T10:53:57;1.80;;;1.25;;
40649;SDS011;26342;42.826;23.992;2024-01-30T10:56:23;3.70;;;1.83;;
40649;SDS011;26342;42.826;23.992;2024-01-30T10:58:53;4.60;;;1.80;;
40649;SDS011;26342;42.826;23.992;2024-01-30T11:01:20;3.08;;;1.25;;
40649;SDS011;26342;42.826;23.992;2024-01-30T11:03:53;3.28;;;1.48;;
40649;SDS011;26342;42.826;23.992;2024-01-30T11:06:25;3.63;;;1.27;;
40649;SDS011;26342;42.826;23.992;2024-01-30T11:09:01;4.03;;;1.83;;
40649;SDS011;26342;42.826;23.992;2024-01-30T11:11:50;1.65;;;1.00;;
40649;SDS011;26342;42.826;23.992;2024-01-30T11:14:16;5.55;;;2.15;;
40649;SDS011;26342;42.826;23.992;2024-01-30T11:16:49;1.60;;;1.17;;
40649;SDS011;26342;42.826;23.992;2024-01-30T11:19:14;3.30;;;1.52;;
40649;SDS011;26342;42.826;23.992;2024-01-30T11:21:41;1.45;;;0.98;;
40649;SDS011;26342;42.826;23.992;2024-01-30T11:24:07;3.50;;;1.20;;
40649;SDS011;26342;42.826;23.992;2024-01-30T11:26:33;2.13;;;1.02;;
40649;SDS011;26342;42.826;23.992;2024-01-30T11:28:59;2.58;;;1.58;;
40649;SDS011;26342;42.826;23.992;2024-01-30T11:31:29;0.85;;;0.68;;
40649;SDS011;26342;42.826;23.992;2024-01-30T11:33:55;3.25;;;2.15;;
40649;SDS011;26342;42.826;23.992;2024-01-30T11:36:25;2.47;;;2.10;;
40649;SDS011;26342;42.826;23.992;2024-01-30T11:38:54;3.67;;;0.75;;
40649;SDS011;26342;42.826;23.992;2024-01-30T11:41:19;3.22;;;0.88;;
40649;SDS011;26342;42.826;23.992;2024-01-30T11:43:54;2.20;;;1.25;;
40649;SDS011;26342;42.826;23.992;2024-01-30T11:46:20;2.67;;;0.75;;
40649;SDS011;26342;42.826;23.992;2024-01-30T11:48:45;2.28;;;1.00;;
40649;SDS011;26342;42.826;23.992;2024-01-30T11:51:12;1.90;;;1.60;;
40649;SDS011;26342;42.826;23.992;2024-01-30T11:53:38;1.70;;;0.98;;
40649;SDS011;26342;42.826;23.992;2024-01-30T11:56:06;3.47;;;1.40;;
40649;SDS011;26342;42.826;23.992;2024-01-30T11:58:33;1.25;;;0.70;;
40649;SDS011;26342;42.826;23.992;2024-01-30T12:00:59;1.98;;;0.70;;
40649;SDS011;26342;42.826;23.992;2024-01-30T12:03:24;3.45;;;1.58;;
40649;SDS011;26342;42.826;23.992;2024-01-30T12:05:56;2.20;;;1.30;;
40649;SDS011;26342;42.826;23.992;2024-01-30T12:08:23;3.47;;;1.45;;
40649;SDS011;26342;42.826;23.992;2024-01-30T12:10:58;1.45;;;1.13;;
40649;SDS011;26342;42.826;23.992;2024-01-30T12:13:24;4.57;;;1.70;;
40649;SDS011;26342;42.826;23.992;2024-01-30T12:15:51;2.80;;;1.73;;
40649;SDS011;26342;42.826;23.992;2024-01-30T12:18:19;1.95;;;1.27;;
40649;SDS011;26342;42.826;23.992;2024-01-30T12:20:45;1.58;;;1.40;;
40649;SDS011;26342;42.826;23.992;2024-01-30T12:23:11;6.32;;;2.13;;
40649;SDS011;26342;42.826;23.992;2024-01-30T12:25:37;3.47;;;2.08;;
40649;SDS011;26342;42.826;23.992;2024-01-30T12:28:03;5.68;;;1.60;;
40649;SDS011;26342;42.826;23.992;2024-01-30T12:30:29;1.75;;;1.17;;
40649;SDS011;26342;42.826;23.992;2024-01-30T12:32:55;5.18;;;1.65;;
40649;SDS011;26342;42.826;23.992;2024-01-30T12:35:20;3.30;;;1.08;;
40649;SDS011;26342;42.826;23.992;2024-01-30T12:37:47;3.55;;;1.63;;
40649;SDS011;26342;42.826;23.992;2024-01-30T12:40:14;2.38;;;1.20;;
40649;SDS011;26342;42.826;23.992;2024-01-30T12:42:40;4.30;;;1.85;;
40649;SDS011;26342;42.826;23.992;2024-01-30T12:45:08;2.10;;;1.23;;
40649;SDS011;26342;42.826;23.992;2024-01-30T12:47:34;3.22;;;1.42;;
40649;SDS011;26342;42.826;23.992;2024-01-30T12:50:00;3.72;;;0.80;;
40649;SDS011;26342;42.826;23.992;2024-01-30T12:52:27;4.93;;;2.03;;
40649;SDS011;26342;42.826;23.992;2024-01-30T12:54:53;2.40;;;1.67;;
40649;SDS011;26342;42.826;23.992;2024-01-30T12:57:19;2.97;;;1.48;;
40649;SDS011;26342;42.826;23.992;2024-01-30T12:59:45;2.15;;;1.45;;
40649;SDS011;26342;42.826;23.992;2024-01-30T13:02:12;1.90;;;1.13;;
40649;SDS011;26342;42.826;23.992;2024-01-30T13:04:38;3.33;;;1.77;;
40649;SDS011;26342;42.826;23.992;2024-01-30T13:07:05;2.13;;;1.60;;
40649;SDS011;26342;42.826;23.992;2024-01-30T13:09:30;5.22;;;1.70;;
40649;SDS011;26342;42.826;23.992;2024-01-30T13:11:56;3.30;;;1.25;;
40649;SDS011;26342;42.826;23.992;2024-01-30T13:14:22;5.07;;;2.53;;
40649;SDS011;26342;42.826;23.992;2024-01-30T13:16:47;2.10;;;1.60;;
40649;SDS011;26342;42.826;23.992;2024-01-30T13:19:13;3.25;;;1.52;;
40649;SDS011;26342;42.826;23.992;2024-01-30T13:21:38;6.20;;;1.92;;
40649;SDS011;26342;42.826;23.992;2024-01-30T13:24:04;3.85;;;1.60;;
40649;SDS011;26342;42.826;23.992;2024-01-30T13:26:31;0.80;;;0.80;;
40649;SDS011;26342;42.826;23.992;2024-01-30T13:28:57;1.30;;;1.20;;
40649;SDS011;26342;42.826;23.992;2024-01-30T13:31:22;2.42;;;1.23;;
40649;SDS011;26342;42.826;23.992;2024-01-30T13:33:48;6.97;;;1.90;;
40649;SDS011;26342;42.826;23.992;2024-01-30T13:36:14;1.73;;;1.45;;
40649;SDS011;26342;42.826;23.992;2024-01-30T13:38:39;1.23;;;0.90;;
40649;SDS011;26342;42.826;23.992;2024-01-30T13:41:05;2.97;;;1.40;;
40649;SDS011;26342;42.826;23.992;2024-01-30T13:43:31;6.57;;;1.67;;
40649;SDS011;26342;42.826;23.992;2024-01-30T13:45:56;3.60;;;2.13;;
40649;SDS011;26342;42.826;23.992;2024-01-30T13:48:22;2.58;;;1.50;;
40649;SDS011;26342;42.826;23.992;2024-01-30T13:50:48;4.97;;;1.75;;
40649;SDS011;26342;42.826;23.992;2024-01-30T13:53:13;3.85;;;1.95;;
40649;SDS011;26342;42.826;23.992;2024-01-30T13:55:39;13.02;;;2.67;;
40649;SDS011;26342;42.826;23.992;2024-01-30T13:58:05;3.67;;;2.00;;
40649;SDS011;26342;42.826;23.992;2024-01-30T14:00:31;2.78;;;1.40;;
40649;SDS011;26342;42.826;23.992;2024-01-30T14:02:56;5.90;;;2.13;;
40649;SDS011;26342;42.826;23.992;2024-01-30T14:05:23;4.15;;;2.47;;
40649;SDS011;26342;42.826;23.992;2024-01-30T14:07:50;6.80;;;2.75;;
40649;SDS011;26342;42.826;23.992;2024-01-30T14:10:16;1.73;;;1.40;;
40649;SDS011;26342;42.826;23.992;2024-01-30T14:12:42;5.10;;;2.88;;
40649;SDS011;26342;42.826;23.992;2024-01-30T14:15:13;3.10;;;1.42;;
40649;SDS011;26342;42.826;23.992;2024-01-30T14:17:46;6.57;;;3.33;;
40649;SDS011;26342;42.826;23.992;2024-01-30T14:20:14;3.47;;;2.60;;
40649;SDS011;26342;42.826;23.992;2024-01-30T14:22:41;14.68;;;7.78;;
40649;SDS011;26342;42.826;23.992;2024-01-30T14:25:07;44.10;;;19.40;;
40649;SDS011;26342;42.826;23.992;2024-01-30T14:27:34;46.72;;;22.33;;